createdAt,value
2023-03-02T00:01:49.575Z,10.50
2023-03-02T00:04:26.367Z,9.00
2023-03-02T00:06:58.461Z,11.35
2023-03-02T00:09:25.385Z,11.73
2023-03-02T00:11:52.287Z,9.68
2023-03-02T00:14:19.058Z,13.48
2023-03-02T00:16:45.811Z,10.07
2023-03-02T00:19:12.582Z,9.20
2023-03-02T00:21:41.015Z,9.02
2023-03-02T00:24:08.176Z,10.23
2023-03-02T00:26:35.995Z,12.45
2023-03-02T00:29:04.172Z,10.95
2023-03-02T00:31:31.067Z,11.15
2023-03-02T00:33:57.919Z,14.93
2023-03-02T00:36:25.019Z,9.35
2023-03-02T00:38:52.473Z,10.50
2023-03-02T00:41:21.572Z,11.07
2023-03-02T00:43:49.131Z,10.50
2023-03-02T00:46:20.699Z,12.10
2023-03-02T00:48:47.675Z,11.85
2023-03-02T00:51:15.323Z,11.02
2023-03-02T00:53:42.155Z,13.40
2023-03-02T00:56:09.718Z,12.35
2023-03-02T00:58:36.809Z,12.10
2023-03-02T01:01:10.697Z,11.40
2023-03-02T01:03:38.256Z,13.38
2023-03-02T01:06:13.247Z,11.18
2023-03-02T01:08:40.040Z,14.40
2023-03-02T01:11:16.984Z,16.83
2023-03-02T01:13:44.856Z,11.38
2023-03-02T01:16:12.004Z,13.93
2023-03-02T01:18:38.923Z,13.85
2023-03-02T01:21:11.098Z,12.38
2023-03-02T01:23:38.004Z,10.10
2023-03-02T01:26:04.962Z,14.93
2023-03-02T01:28:31.754Z,12.40
2023-03-02T01:31:01.081Z,12.60
2023-03-02T01:33:27.915Z,14.80
2023-03-02T01:35:54.693Z,12.32
2023-03-02T01:38:21.619Z,12.68
2023-03-02T01:40:48.411Z,15.05
2023-03-02T01:43:16.832Z,12.63
2023-03-02T01:45:53.351Z,11.60
2023-03-02T01:48:45.529Z,16.45
2023-03-02T01:51:17.288Z,13.90
2023-03-02T01:53:46.792Z,13.75
2023-03-02T01:56:20.574Z,11.93
2023-03-02T01:58:52.294Z,11.52
2023-03-02T02:01:19.119Z,10.80
2023-03-02T02:03:50.844Z,13.00
2023-03-02T02:06:31.664Z,11.55
2023-03-02T02:09:00.371Z,14.57
2023-03-02T02:11:27.420Z,15.90
2023-03-02T02:13:58.282Z,12.73
2023-03-02T02:16:26.920Z,14.70
2023-03-02T02:18:53.858Z,14.23
2023-03-02T02:21:22.613Z,12.30
2023-03-02T02:24:08.065Z,15.05
2023-03-02T02:26:49.033Z,16.38
2023-03-02T02:29:22.900Z,20.08
2023-03-02T02:32:12.083Z,30.08
2023-03-02T02:34:50.920Z,28.52
2023-03-02T02:37:29.106Z,51.42
2023-03-02T02:39:56.325Z,43.08
2023-03-02T02:42:32.129Z,50.03
2023-03-02T02:45:04.119Z,36.15
2023-03-02T02:47:31.747Z,56.55
2023-03-02T02:49:58.771Z,78.60
2023-03-02T02:52:28.197Z,43.08
2023-03-02T02:54:57.914Z,51.45
2023-03-02T02:57:28.914Z,76.97
2023-03-02T02:59:59.711Z,47.05
2023-03-02T03:02:30.796Z,47.40
2023-03-02T03:05:02.499Z,56.78
2023-03-02T03:07:31.082Z,50.15
2023-03-02T03:10:30.283Z,35.28
2023-03-02T03:12:57.121Z,43.20
2023-03-02T03:15:23.898Z,99.25
2023-03-02T03:17:58.384Z,67.60
2023-03-02T03:20:28.035Z,67.40
2023-03-02T03:22:55.050Z,50.90
2023-03-02T03:25:25.800Z,61.10
2023-03-02T03:27:52.674Z,89.90
2023-03-02T03:30:19.528Z,84.95
2023-03-02T03:32:46.310Z,74.18
2023-03-02T03:35:13.304Z,63.20
2023-03-02T03:37:41.612Z,81.05
2023-03-02T03:40:10.094Z,67.97
2023-03-02T03:42:38.323Z,75.25
2023-03-02T03:45:06.980Z,62.70
2023-03-02T03:47:34.298Z,59.22
2023-03-02T03:50:01.067Z,103.43
2023-03-02T03:52:31.022Z,61.22
2023-03-02T03:55:02.221Z,98.57
2023-03-02T03:57:29.551Z,64.05
2023-03-02T03:59:56.432Z,74.97
2023-03-02T04:02:23.271Z,43.05
2023-03-02T04:04:50.059Z,69.57
2023-03-02T04:07:16.865Z,68.45
2023-03-02T04:09:44.138Z,79.65
2023-03-02T04:12:11.315Z,102.72
2023-03-02T04:14:38.209Z,65.68
2023-03-02T04:17:07.039Z,82.07
2023-03-02T04:19:35.385Z,91.85
2023-03-02T04:22:03.977Z,52.13
2023-03-02T04:24:30.825Z,35.00
2023-03-02T04:26:57.601Z,59.10
2023-03-02T04:29:24.393Z,63.83
2023-03-02T04:31:51.257Z,58.53
2023-03-02T04:34:18.101Z,47.63
2023-03-02T04:36:45.305Z,36.15
2023-03-02T04:39:16.687Z,29.98
2023-03-02T04:41:43.964Z,43.78
2023-03-02T04:44:11.369Z,32.38
2023-03-02T04:46:39.038Z,82.63
2023-03-02T04:49:06.658Z,42.17
2023-03-02T04:51:40.673Z,47.70
2023-03-02T04:56:38.128Z,36.88
2023-03-02T04:59:04.923Z,43.88
2023-03-02T05:01:32.006Z,42.65
2023-03-02T05:04:00.737Z,54.13
2023-03-02T05:06:29.279Z,59.55
2023-03-02T05:08:59.697Z,38.47
2023-03-02T05:11:27.452Z,39.92
2023-03-02T05:14:01.823Z,36.33
2023-03-02T05:16:32.581Z,82.38
2023-03-02T05:19:01.303Z,37.65
2023-03-02T05:21:28.135Z,35.05
2023-03-02T05:23:54.992Z,36.70
2023-03-02T05:26:21.897Z,59.90
2023-03-02T05:28:48.902Z,40.95
2023-03-02T05:31:24.739Z,28.95
2023-03-02T05:33:51.542Z,43.28
2023-03-02T05:36:20.271Z,31.13
2023-03-02T05:38:48.031Z,114.38
2023-03-02T05:41:15.217Z,43.60
2023-03-02T05:43:41.974Z,66.13
2023-03-02T05:46:08.876Z,97.72
2023-03-02T05:48:35.990Z,68.85
2023-03-02T05:51:02.856Z,64.93
2023-03-02T05:53:29.884Z,61.85
2023-03-02T05:55:56.700Z,46.00
2023-03-02T05:58:23.572Z,32.35
2023-03-02T06:00:50.510Z,56.80
2023-03-02T06:03:18.172Z,50.72
2023-03-02T06:05:45.167Z,33.85
2023-03-02T06:08:11.942Z,42.60
2023-03-02T06:10:38.833Z,27.70
2023-03-02T06:13:05.614Z,26.63
2023-03-02T06:15:32.393Z,47.25
2023-03-02T06:17:59.232Z,39.38
2023-03-02T06:20:26.655Z,34.35
2023-03-02T06:22:53.445Z,42.35
2023-03-02T06:25:23.474Z,43.47
2023-03-02T06:27:52.333Z,98.18
2023-03-02T06:30:25.116Z,43.15
2023-03-02T06:32:52.415Z,66.20
2023-03-02T06:35:19.635Z,42.67
2023-03-02T06:37:46.500Z,42.53
2023-03-02T06:40:14.296Z,36.08
2023-03-02T06:42:42.639Z,102.32
2023-03-02T06:45:10.813Z,105.07
2023-03-02T06:47:37.850Z,48.40
2023-03-02T06:50:05.912Z,41.92
2023-03-02T06:52:32.722Z,40.13
2023-03-02T06:54:59.520Z,39.72
2023-03-02T06:57:33.489Z,74.03
2023-03-02T07:02:29.185Z,47.53
2023-03-02T07:04:55.964Z,71.28
2023-03-02T07:07:22.722Z,50.65
2023-03-02T07:09:49.606Z,50.65
2023-03-02T07:12:16.435Z,43.42
2023-03-02T07:14:43.232Z,41.58
2023-03-02T07:17:10.012Z,51.28
2023-03-02T07:19:40.728Z,56.63
2023-03-02T07:22:07.774Z,57.33
2023-03-02T07:24:34.656Z,58.30
2023-03-02T07:27:01.445Z,40.03
2023-03-02T07:29:28.348Z,32.03
2023-03-02T07:32:01.487Z,66.10
2023-03-02T07:34:28.615Z,33.38
2023-03-02T07:36:55.464Z,67.28
2023-03-02T07:39:22.342Z,62.05
2023-03-02T07:41:49.201Z,58.15
2023-03-02T07:44:16.022Z,42.03
2023-03-02T07:46:42.979Z,87.82
2023-03-02T07:49:10.320Z,47.28
2023-03-02T07:51:37.191Z,58.83
2023-03-02T07:54:04.998Z,38.30
2023-03-02T07:56:32.069Z,28.88
2023-03-02T07:58:58.941Z,39.03
2023-03-02T08:01:26.004Z,65.97
2023-03-02T08:03:53.155Z,65.97
2023-03-02T08:06:20.493Z,57.63
2023-03-02T08:08:47.305Z,37.78
2023-03-02T08:11:17.087Z,35.65
2023-03-02T08:13:44.968Z,36.33
2023-03-02T08:16:15.036Z,29.25
2023-03-02T08:18:42.283Z,46.47
2023-03-02T08:21:18.821Z,28.23
2023-03-02T08:23:46.040Z,75.30
2023-03-02T08:26:17.295Z,22.50
2023-03-02T08:28:44.708Z,32.75
2023-03-02T08:31:12.571Z,30.05
2023-03-02T08:33:39.533Z,24.60
2023-03-02T08:36:18.913Z,29.90
2023-03-02T08:38:47.337Z,24.40
2023-03-02T08:41:18.143Z,20.55
2023-03-02T08:43:44.949Z,28.77
2023-03-02T08:46:14.066Z,65.07
2023-03-02T08:48:41.208Z,25.45
2023-03-02T08:51:15.827Z,31.48
2023-03-02T08:53:46.150Z,29.00
2023-03-02T08:56:17.930Z,53.78
2023-03-02T08:58:44.714Z,22.25
2023-03-02T09:01:17.407Z,24.52
2023-03-02T09:03:45.268Z,24.90
2023-03-02T09:06:12.916Z,28.17
2023-03-02T09:08:43.603Z,33.30
2023-03-02T09:11:11.016Z,25.58
2023-03-02T09:13:38.474Z,31.33
2023-03-02T09:16:06.663Z,32.47
2023-03-02T09:18:34.046Z,26.25
2023-03-02T09:21:00.850Z,31.60
2023-03-02T09:23:29.150Z,27.92
2023-03-02T09:25:56.127Z,42.40
2023-03-02T09:28:23.558Z,26.60
2023-03-02T09:30:57.707Z,25.60
2023-03-02T09:35:51.189Z,21.92
2023-03-02T09:38:19.394Z,35.45
2023-03-02T09:41:31.746Z,25.65
2023-03-02T09:44:43.943Z,28.60
2023-03-02T09:47:34.899Z,22.52
2023-03-02T09:50:27.291Z,22.33
2023-03-02T09:53:25.052Z,21.10
2023-03-02T09:55:56.128Z,22.30
2023-03-02T09:58:26.884Z,25.45
2023-03-02T10:00:53.837Z,31.15
2023-03-02T10:03:27.188Z,25.73
2023-03-02T10:05:55.432Z,25.15
2023-03-02T10:08:29.984Z,24.73
2023-03-02T10:11:23.409Z,23.30
2023-03-02T10:13:57.137Z,20.30
2023-03-02T10:16:46.268Z,25.73
2023-03-02T10:19:27.338Z,23.65
2023-03-02T10:22:26.660Z,27.48
2023-03-02T10:25:39.180Z,24.95
2023-03-02T10:28:22.844Z,25.63
2023-03-02T10:31:06.320Z,15.35
2023-03-02T10:33:38.730Z,25.50
2023-03-02T10:36:20.280Z,24.48
2023-03-02T10:38:47.621Z,24.27
2023-03-02T10:41:41.147Z,22.13
2023-03-02T10:44:39.101Z,24.50
2023-03-02T10:47:08.462Z,25.00
2023-03-02T10:49:39.282Z,22.90
2023-03-02T10:52:19.556Z,22.15
2023-03-02T10:54:47.571Z,24.20
2023-03-02T10:57:35.652Z,21.60
2023-03-02T11:00:16.132Z,22.77
2023-03-02T11:03:03.702Z,24.45
2023-03-02T11:05:39.823Z,22.92
2023-03-02T11:08:11.141Z,24.35
2023-03-02T11:11:00.913Z,24.50
2023-03-02T11:13:34.351Z,23.15
2023-03-02T11:16:19.526Z,21.25
2023-03-02T11:19:19.400Z,20.92
2023-03-02T11:22:03.218Z,22.00
2023-03-02T11:24:39.244Z,26.52
2023-03-02T11:27:28.051Z,24.65
2023-03-02T11:30:17.187Z,21.67
2023-03-02T11:33:04.300Z,23.33
2023-03-02T11:35:55.065Z,23.08
2023-03-02T11:38:43.159Z,24.02
2023-03-02T11:41:29.640Z,21.00
2023-03-02T11:44:03.465Z,21.60
2023-03-02T11:46:33.011Z,22.83
2023-03-02T11:49:24.452Z,24.92
2023-03-02T11:52:00.545Z,21.55
2023-03-02T11:54:46.679Z,21.63
2023-03-02T11:57:38.692Z,20.55
2023-03-02T12:00:20.587Z,26.35
2023-03-02T12:03:02.649Z,23.38
2023-03-02T12:05:36.151Z,21.50
2023-03-02T12:08:08.501Z,23.65
2023-03-02T12:10:43.060Z,27.35
2023-03-02T12:13:21.347Z,25.17
2023-03-02T12:15:52.796Z,23.95
2023-03-02T12:18:22.607Z,22.73
2023-03-02T12:21:16.766Z,28.35
2023-03-02T12:23:49.948Z,22.80
2023-03-02T12:26:19.742Z,28.13
2023-03-02T12:29:06.705Z,27.27
2023-03-02T12:31:51.164Z,25.48
2023-03-02T12:34:51.997Z,27.23
2023-03-02T12:37:25.843Z,23.38
2023-03-02T12:40:17.199Z,21.05
2023-03-02T12:43:28.594Z,25.38
2023-03-02T12:46:27.135Z,26.35
2023-03-02T12:48:59.992Z,30.35
2023-03-02T12:51:53.989Z,29.58
2023-03-02T12:54:28.039Z,29.55
2023-03-02T12:57:06.764Z,25.67
2023-03-02T12:59:33.519Z,26.80
2023-03-02T13:02:24.056Z,39.75
2023-03-02T13:05:06.105Z,28.40
2023-03-02T13:08:03.107Z,31.30
2023-03-02T13:10:40.192Z,25.58
2023-03-02T13:13:43.839Z,26.25
2023-03-02T13:16:23.220Z,25.80
2023-03-02T13:18:56.573Z,24.33
2023-03-02T13:21:39.887Z,27.48
2023-03-02T13:24:34.087Z,26.52
2023-03-02T13:27:07.689Z,28.90
2023-03-02T13:29:35.846Z,24.70
2023-03-02T13:32:21.156Z,24.60
2023-03-02T13:34:53.189Z,27.48
2023-03-02T13:37:32.158Z,25.10
2023-03-02T13:40:02.448Z,26.67
2023-03-02T13:42:37.275Z,23.38
2023-03-02T13:45:30.729Z,25.38
2023-03-02T13:48:01.009Z,23.45
2023-03-02T13:50:32.226Z,25.90
2023-03-02T13:53:05.326Z,23.35
2023-03-02T13:55:32.718Z,25.58
2023-03-02T13:58:00.480Z,29.33
2023-03-02T14:00:34.659Z,26.60
2023-03-02T14:05:35.612Z,24.92
2023-03-02T14:08:02.968Z,24.15
2023-03-02T14:10:29.831Z,25.73
2023-03-02T14:13:03.145Z,28.05
2023-03-02T14:15:30.063Z,26.17
2023-03-02T14:17:56.934Z,27.27
2023-03-02T14:20:23.807Z,25.42
2023-03-02T14:22:50.696Z,27.95
2023-03-02T14:25:17.640Z,25.08
2023-03-02T14:27:47.034Z,25.85
2023-03-02T14:30:21.189Z,26.48
2023-03-02T14:35:16.552Z,23.77
2023-03-02T14:37:47.316Z,22.23
2023-03-02T14:40:23.249Z,29.60
2023-03-02T14:42:51.683Z,25.95
2023-03-02T14:45:18.978Z,24.83
2023-03-02T14:47:48.830Z,30.00
2023-03-02T14:50:19.037Z,27.05
2023-03-02T14:52:56.516Z,26.70
2023-03-02T14:55:32.621Z,29.73
2023-03-02T14:58:04.329Z,24.63
2023-03-02T15:00:31.591Z,25.23
2023-03-02T15:02:59.208Z,24.45
2023-03-02T15:05:26.101Z,27.45
2023-03-02T15:07:53.710Z,29.90
2023-03-02T15:10:22.302Z,25.92
2023-03-02T15:12:49.277Z,25.70
2023-03-02T15:15:16.560Z,29.90
2023-03-02T15:17:43.524Z,30.35
2023-03-02T15:20:30.735Z,24.85
2023-03-02T15:22:57.772Z,21.50
2023-03-02T15:25:25.891Z,26.83
2023-03-02T15:27:55.428Z,33.75
2023-03-02T15:30:24.248Z,27.63
2023-03-02T15:32:53.122Z,27.50
2023-03-02T15:35:19.872Z,28.80
2023-03-02T15:37:46.691Z,30.92
2023-03-02T15:40:13.633Z,28.70
2023-03-02T15:42:40.385Z,27.45
2023-03-02T15:45:10.618Z,33.47
2023-03-02T15:47:37.917Z,29.67
2023-03-02T15:50:05.277Z,28.17
2023-03-02T15:52:32.056Z,30.75
2023-03-02T15:54:58.837Z,35.38
2023-03-02T15:57:25.696Z,29.35
2023-03-02T15:59:52.505Z,32.13
2023-03-02T16:02:19.285Z,34.60
2023-03-02T16:04:46.231Z,35.05
2023-03-02T16:07:12.990Z,28.60
2023-03-02T16:09:39.757Z,32.45
2023-03-02T16:12:06.603Z,32.33
2023-03-02T16:14:34.177Z,36.03
2023-03-02T16:17:00.972Z,32.78
2023-03-02T16:19:27.767Z,35.53
2023-03-02T16:21:54.554Z,35.50
2023-03-02T16:24:21.313Z,37.90
2023-03-02T16:26:49.586Z,37.90
2023-03-02T16:29:16.394Z,41.42
2023-03-02T16:31:46.693Z,35.20
2023-03-02T16:34:13.947Z,35.83
2023-03-02T16:36:42.162Z,38.15
2023-03-02T16:39:10.729Z,37.33
2023-03-02T16:41:40.807Z,33.53
2023-03-02T16:44:07.898Z,36.70
2023-03-02T16:46:37.228Z,38.65
2023-03-02T16:49:04.769Z,35.53
2023-03-02T16:51:32.287Z,39.17
2023-03-02T16:53:59.124Z,38.47
2023-03-02T16:56:26.237Z,38.97
2023-03-02T16:58:53.071Z,40.15
2023-03-02T17:01:22.012Z,37.72
2023-03-02T17:03:50.596Z,41.47
2023-03-02T17:06:22.146Z,35.15
2023-03-02T17:08:50.609Z,41.60
2023-03-02T17:11:18.557Z,38.63
2023-03-02T17:13:45.555Z,35.17
2023-03-02T17:16:12.682Z,34.15
2023-03-02T17:18:40.898Z,32.88
2023-03-02T17:21:10.732Z,30.17
2023-03-02T17:23:38.577Z,28.23
2023-03-02T17:26:05.591Z,25.80
2023-03-02T17:28:32.377Z,26.80
2023-03-02T17:31:00.248Z,30.67
2023-03-02T17:33:29.412Z,25.75
2023-03-02T17:35:56.241Z,21.95
2023-03-02T17:38:23.121Z,24.15
2023-03-02T17:40:49.889Z,23.80
2023-03-02T17:43:16.755Z,21.52
2023-03-02T17:45:46.698Z,23.95
2023-03-02T17:48:13.564Z,22.65
2023-03-02T17:50:40.357Z,23.90
2023-03-02T17:53:07.103Z,20.83
2023-03-02T17:55:34.332Z,19.85
2023-03-02T17:58:01.140Z,17.58
2023-03-02T18:00:28.104Z,21.38
2023-03-02T18:02:55.045Z,17.38
2023-03-02T18:05:22.125Z,19.38
2023-03-02T18:07:48.961Z,18.90
2023-03-02T18:10:15.861Z,19.73
2023-03-02T18:12:42.774Z,20.55
2023-03-02T18:15:11.059Z,17.05
2023-03-02T18:17:37.867Z,19.20
2023-03-02T18:20:05.404Z,18.15
2023-03-02T18:22:32.299Z,17.88
2023-03-02T18:24:59.092Z,18.73
2023-03-02T18:27:25.904Z,18.30
2023-03-02T18:29:52.691Z,18.55
2023-03-02T18:32:19.500Z,17.63
2023-03-02T18:34:46.375Z,18.70
2023-03-02T18:37:13.210Z,21.33
2023-03-02T18:39:40.023Z,19.25
2023-03-02T18:42:07.169Z,19.67
2023-03-02T18:44:34.537Z,20.50
2023-03-02T18:47:02.001Z,18.50
2023-03-02T18:49:29.510Z,20.95
2023-03-02T18:51:56.973Z,17.42
2023-03-02T18:54:24.412Z,16.75
2023-03-02T18:56:51.196Z,15.23
2023-03-02T18:59:18.774Z,15.20
2023-03-02T19:01:46.084Z,16.77
2023-03-02T19:04:14.306Z,15.25
2023-03-02T19:06:55.957Z,12.52
2023-03-02T19:09:23.619Z,14.25
2023-03-02T19:11:50.511Z,14.25
2023-03-02T19:14:17.386Z,13.63
2023-03-02T19:16:44.226Z,17.30
2023-03-02T19:19:11.064Z,15.55
2023-03-02T19:21:38.247Z,16.95
2023-03-02T19:24:05.659Z,17.90
2023-03-02T19:26:32.494Z,16.30
2023-03-02T19:29:00.134Z,17.38
2023-03-02T19:31:27.533Z,15.73
2023-03-02T19:33:54.898Z,15.02
2023-03-02T19:36:21.673Z,16.55
2023-03-02T19:38:48.516Z,16.25
2023-03-02T19:41:19.054Z,14.82
2023-03-02T19:43:46.414Z,15.48
2023-03-02T19:46:15.760Z,20.00
2023-03-02T19:48:43.558Z,17.80
2023-03-02T19:51:11.968Z,17.00
2023-03-02T19:53:40.682Z,21.58
2023-03-02T19:56:12.613Z,18.00
2023-03-02T19:58:49.537Z,21.80
2023-03-02T20:01:21.400Z,21.48
2023-03-02T20:03:53.303Z,19.88
2023-03-02T20:06:30.425Z,19.92
2023-03-02T20:09:04.643Z,20.75
2023-03-02T20:11:31.470Z,21.38
2023-03-02T20:14:02.514Z,23.52
2023-03-02T20:16:33.569Z,21.00
2023-03-02T20:19:01.908Z,21.80
2023-03-02T20:21:30.439Z,18.33
2023-03-02T20:23:57.251Z,19.85
2023-03-02T20:26:24.558Z,26.50
2023-03-02T20:28:53.472Z,23.58
2023-03-02T20:31:20.371Z,27.15
2023-03-02T20:33:51.743Z,22.10
2023-03-02T20:36:27.983Z,24.30
2023-03-02T20:39:10.568Z,24.00
2023-03-02T20:41:37.987Z,27.00
2023-03-02T20:44:05.450Z,23.20
2023-03-02T20:46:38.857Z,20.63
2023-03-02T20:49:08.055Z,19.38
2023-03-02T20:51:35.217Z,20.75
2023-03-02T20:54:03.384Z,22.58
2023-03-02T20:56:30.223Z,21.13
2023-03-02T20:58:57.057Z,20.63
2023-03-02T21:01:24.500Z,19.50
2023-03-02T21:03:51.864Z,21.85
2023-03-02T21:06:19.137Z,19.42
2023-03-02T21:08:47.204Z,19.65
2023-03-02T21:11:18.216Z,24.33
2023-03-02T21:13:47.571Z,24.17
2023-03-02T21:16:23.840Z,23.70
2023-03-02T21:18:50.998Z,22.10
2023-03-02T21:21:20.238Z,23.50
2023-03-02T21:23:49.897Z,20.02
2023-03-02T21:26:17.237Z,25.10
2023-03-02T21:28:44.266Z,21.58
2023-03-02T21:31:14.575Z,19.92
2023-03-02T21:33:42.337Z,19.35
2023-03-02T21:36:17.416Z,30.58
2023-03-02T21:38:44.486Z,22.42
2023-03-02T21:41:11.334Z,26.08
2023-03-02T21:43:38.417Z,21.40
2023-03-02T21:46:05.561Z,24.30
2023-03-02T21:48:35.110Z,24.25
2023-03-02T21:51:01.966Z,22.30
2023-03-02T21:53:28.785Z,22.65
2023-03-02T21:55:55.593Z,31.65
2023-03-02T21:58:22.558Z,21.30
2023-03-02T22:00:49.381Z,26.50
2023-03-02T22:03:16.425Z,21.80
2023-03-02T22:05:43.228Z,25.00
2023-03-02T22:08:16.815Z,20.65
2023-03-02T22:10:47.074Z,44.15
2023-03-02T22:13:22.230Z,26.40
2023-03-02T22:15:55.930Z,30.55
2023-03-02T22:18:25.684Z,31.17
2023-03-02T22:20:52.480Z,22.17
2023-03-02T22:23:23.546Z,21.95
2023-03-02T22:25:54.666Z,17.50
2023-03-02T22:28:25.662Z,20.13
2023-03-02T22:30:58.538Z,23.20
2023-03-02T22:33:28.952Z,18.33
2023-03-02T22:36:15.196Z,19.42
2023-03-02T22:38:42.005Z,20.30
2023-03-02T22:41:15.757Z,24.65
2023-03-02T22:43:43.104Z,16.70
2023-03-02T22:46:17.221Z,19.00
2023-03-02T22:48:47.696Z,22.20
2023-03-02T22:51:28.374Z,19.40
2023-03-02T22:53:59.153Z,18.23
2023-03-02T22:56:38.522Z,20.23
2023-03-02T22:59:27.656Z,25.27
2023-03-02T23:02:08.386Z,23.83
2023-03-02T23:04:38.290Z,21.48
2023-03-02T23:07:20.742Z,21.80
2023-03-02T23:09:48.579Z,20.13
2023-03-02T23:12:23.378Z,18.48
2023-03-02T23:14:58.452Z,19.20
2023-03-02T23:17:51.798Z,24.33
2023-03-02T23:20:19.171Z,18.17
2023-03-02T23:22:46.224Z,21.05
2023-03-02T23:25:14.373Z,19.48
2023-03-02T23:27:41.132Z,17.75
2023-03-02T23:30:09.746Z,17.77
2023-03-02T23:32:36.596Z,20.50
2023-03-02T23:35:03.525Z,19.17
2023-03-02T23:37:30.306Z,19.50
2023-03-02T23:39:57.082Z,18.85
2023-03-02T23:42:23.865Z,19.45
2023-03-02T23:44:50.687Z,20.77
2023-03-02T23:47:17.466Z,19.98
2023-03-02T23:49:44.353Z,17.85
2023-03-02T23:52:11.115Z,21.58
2023-03-02T23:54:37.912Z,21.00
2023-03-02T23:57:04.928Z,26.98
2023-03-02T23:59:31.713Z,20.38
